Time;durP1;ratioP1;P1;durP2;ratioP2;P2;SDS_P1;SDS_P2;PMS_P1;PMS_P2;Temp;Humidity;BMP_temperature;BMP_pressure;BME280_temperature;BME280_humidity;BME280_pressure;Samples;Min_cycle;Max_cycle;Signal;HPM_P1;HPM_P2
2023/01/21 00:01:57;;;;;;;5.50;4.40;;;;;;;;;;4997719;28;20030;-81
2023/01/21 00:04:23;;;;;;;5.32;4.55;;;;;;;;;;5015312;28;20551;-81
2023/01/21 00:06:48;;;;;;;6.50;4.60;;;;;;;;;;5014052;28;20040;-81
2023/01/21 00:09:13;;;;;;;7.18;4.72;;;;;;;;;;5015343;28;20465;-80
2023/01/21 00:11:39;;;;;;;4.93;4.35;;;;;;;;;;4981303;28;20029;-81
2023/01/21 00:14:04;;;;;;;5.07;4.25;;;;;;;;;;5033590;28;20084;-81
2023/01/21 00:16:29;;;;;;;5.93;4.35;;;;;;;;;;5001110;28;20045;-81
2023/01/21 00:18:55;;;;;;;6.28;4.10;;;;;;;;;;5034979;28;20124;-81
2023/01/21 00:21:21;;;;;;;4.55;4.10;;;;;;;;;;5000887;28;20033;-80
2023/01/21 00:23:46;;;;;;;5.70;4.07;;;;;;;;;;5017208;28;20030;-81
2023/01/21 00:26:11;;;;;;;8.02;4.28;;;;;;;;;;5000581;28;20018;-80
2023/01/21 00:28:37;;;;;;;5.30;4.30;;;;;;;;;;5035021;28;20040;-81
2023/01/21 00:31:05;;;;;;;5.28;3.90;;;;;;;;;;5017007;28;20060;-81
2023/01/21 00:33:31;;;;;;;5.63;3.97;;;;;;;;;;5016683;28;20505;-81
2023/01/21 00:36:02;;;;;;;5.30;3.92;;;;;;;;;;5016805;28;20033;-80
2023/01/21 00:38:27;;;;;;;5.03;4.28;;;;;;;;;;5000260;28;20107;-81
2023/01/21 00:41:01;;;;;;;5.28;4.20;;;;;;;;;;5000244;28;20049;-81
2023/01/21 00:43:27;;;;;;;5.15;4.05;;;;;;;;;;5016995;28;20021;-80
2023/01/21 00:45:52;;;;;;;6.45;4.03;;;;;;;;;;5000047;28;20095;-81
2023/01/21 00:48:17;;;;;;;5.43;4.38;;;;;;;;;;5016206;28;20025;-81
2023/01/21 00:50:43;;;;;;;4.30;3.60;;;;;;;;;;5016441;28;20435;-81
2023/01/21 00:53:08;;;;;;;4.60;4.00;;;;;;;;;;5034058;28;20035;-80
2023/01/21 00:55:34;;;;;;;4.50;3.85;;;;;;;;;;5034303;28;20075;-81
2023/01/21 00:57:59;;;;;;;7.05;4.10;;;;;;;;;;5033842;28;20083;-80
2023/01/21 01:00:24;;;;;;;4.32;3.90;;;;;;;;;;5033898;28;20088;-81
2023/01/21 01:02:50;;;;;;;4.00;3.47;;;;;;;;;;5034215;28;20484;-80
2023/01/21 01:05:15;;;;;;;6.53;3.55;;;;;;;;;;4999798;28;20029;-80
2023/01/21 01:07:42;;;;;;;5.32;3.80;;;;;;;;;;4999791;28;20084;-81
2023/01/21 01:10:09;;;;;;;4.40;3.67;;;;;;;;;;5016684;28;20025;-81
2023/01/21 01:12:34;;;;;;;5.03;3.90;;;;;;;;;;5016011;28;20042;-81
2023/01/21 01:14:59;;;;;;;4.95;3.85;;;;;;;;;;5016079;28;20468;-81
2023/01/21 01:17:25;;;;;;;5.05;3.67;;;;;;;;;;5015869;28;20396;-80
2023/01/21 01:19:50;;;;;;;4.40;3.60;;;;;;;;;;5015787;28;20060;-80
2023/01/21 01:22:15;;;;;;;4.80;3.72;;;;;;;;;;5015829;28;20037;-81
2023/01/21 01:24:41;;;;;;;5.60;4.03;;;;;;;;;;5033552;28;20030;-81
2023/01/21 01:27:06;;;;;;;7.05;3.70;;;;;;;;;;5033659;28;20040;-81
2023/01/21 01:29:32;;;;;;;3.95;3.50;;;;;;;;;;5015849;28;20021;-81
2023/01/21 01:31:57;;;;;;;6.30;3.33;;;;;;;;;;5033672;28;20104;-81
2023/01/21 01:34:22;;;;;;;3.85;3.45;;;;;;;;;;4999789;28;20096;-81
2023/01/21 01:36:48;;;;;;;5.22;3.50;;;;;;;;;;5033613;28;20032;-81
2023/01/21 01:39:13;;;;;;;4.20;3.50;;;;;;;;;;4999548;28;20360;-80
2023/01/21 01:41:39;;;;;;;4.10;3.40;;;;;;;;;;5033608;28;20393;-81
2023/01/21 01:44:25;;;;;;;4.28;3.30;;;;;;;;;;5033274;28;20475;-81
2023/01/21 01:46:51;;;;;;;5.38;3.63;;;;;;;;;;5033144;28;20464;-81
2023/01/21 01:49:18;;;;;;;3.88;3.38;;;;;;;;;;4999053;28;20032;-81
2023/01/21 01:51:57;;;;;;;3.97;3.42;;;;;;;;;;5033440;28;20515;-81
2023/01/21 01:54:31;;;;;;;4.28;3.35;;;;;;;;;;5015565;28;20035;-81
2023/01/21 01:56:59;;;;;;;4.00;3.25;;;;;;;;;;5015481;28;20111;-82
2023/01/21 01:59:25;;;;;;;3.58;3.25;;;;;;;;;;5014574;28;20491;-81
2023/01/21 02:01:51;;;;;;;4.35;3.20;;;;;;;;;;5033012;28;20072;-81
2023/01/21 02:04:20;;;;;;;4.55;3.60;;;;;;;;;;5015673;28;20077;-81
2023/01/21 02:06:46;;;;;;;4.35;3.00;;;;;;;;;;4998823;28;20197;-81
2023/01/21 02:09:12;;;;;;;5.60;3.17;;;;;;;;;;4982879;28;20036;-81
2023/01/21 02:11:38;;;;;;;4.72;3.65;;;;;;;;;;5015346;28;20029;-81
2023/01/21 02:14:03;;;;;;;4.55;3.20;;;;;;;;;;5011746;28;20527;-81
2023/01/21 02:16:38;;;;;;;17.35;3.50;;;;;;;;;;5011913;28;20400;-81
2023/01/21 02:19:26;;;;;;;4.82;3.50;;;;;;;;;;5011733;28;20123;-81
2023/01/21 02:22:03;;;;;;;6.50;3.60;;;;;;;;;;4995313;28;20113;-82
2023/01/21 02:24:35;;;;;;;3.65;3.08;;;;;;;;;;5013033;28;20030;-82
2023/01/21 02:27:09;;;;;;;4.47;3.50;;;;;;;;;;5011978;28;20033;-81
2023/01/21 02:29:57;;;;;;;6.50;3.15;;;;;;;;;;5013120;28;20037;-81
2023/01/21 02:32:38;;;;;;;3.65;3.00;;;;;;;;;;5011865;28;20021;-81
2023/01/21 02:35:22;;;;;;;6.80;3.13;;;;;;;;;;5011663;28;20033;-81
2023/01/21 02:37:58;;;;;;;18.85;3.25;;;;;;;;;;5012940;28;20029;-81
2023/01/21 02:40:35;;;;;;;3.53;2.90;;;;;;;;;;4995272;28;20048;-81
2023/01/21 02:43:17;;;;;;;4.15;3.05;;;;;;;;;;5013173;28;20022;-82
2023/01/21 02:45:50;;;;;;;4.05;3.22;;;;;;;;;;5011697;28;20049;-82
2023/01/21 02:48:24;;;;;;;3.77;2.90;;;;;;;;;;5011697;28;20025;-82
2023/01/21 02:50:51;;;;;;;4.57;3.25;;;;;;;;;;4995176;28;20477;-82
2023/01/21 02:53:37;;;;;;;3.90;3.03;;;;;;;;;;5011583;28;20034;-81
2023/01/21 02:56:10;;;;;;;4.18;2.83;;;;;;;;;;5011303;28;20042;-81
2023/01/21 02:58:38;;;;;;;4.90;2.85;;;;;;;;;;5011477;28;20033;-82
2023/01/21 03:01:20;;;;;;;3.95;2.63;;;;;;;;;;5012064;28;20037;-81
2023/01/21 03:03:51;;;;;;;3.05;2.75;;;;;;;;;;5012741;28;20435;-80
2023/01/21 03:06:17;;;;;;;4.22;2.90;;;;;;;;;;5011367;28;20117;-80
2023/01/21 03:08:59;;;;;;;4.32;3.28;;;;;;;;;;5013107;28;20156;-81
2023/01/21 03:11:25;;;;;;;4.60;3.10;;;;;;;;;;5013726;28;20029;-81
2023/01/21 03:16:56;;;;;;;3.20;2.63;;;;;;;;;;4999926;28;20520;-80
2023/01/21 03:19:31;;;;;;;3.55;2.78;;;;;;;;;;5014793;28;20034;-81
2023/01/21 03:21:58;;;;;;;3.88;2.75;;;;;;;;;;5015179;28;20370;-81
2023/01/21 03:24:23;;;;;;;4.00;3.20;;;;;;;;;;5015047;28;20465;-82
2023/01/21 03:26:51;;;;;;;3.63;2.97;;;;;;;;;;5014698;28;20129;-82
2023/01/21 03:29:21;;;;;;;4.07;3.25;;;;;;;;;;5014959;28;20087;-82
2023/01/21 03:31:49;;;;;;;3.80;2.80;;;;;;;;;;5015215;28;20480;-82
2023/01/21 03:34:15;;;;;;;4.45;3.00;;;;;;;;;;4998408;28;20485;-81
2023/01/21 03:36:47;;;;;;;5.70;2.92;;;;;;;;;;5014859;28;20117;-81
2023/01/21 03:39:35;;;;;;;3.88;3.10;;;;;;;;;;5014900;28;20049;-81
2023/01/21 03:42:01;;;;;;;4.32;3.30;;;;;;;;;;5015705;28;20527;-82
2023/01/21 03:44:26;;;;;;;3.70;3.05;;;;;;;;;;4998213;28;20057;-82
2023/01/21 03:47:28;;;;;;;3.60;3.08;;;;;;;;;;5014338;28;20038;-81
2023/01/21 03:50:07;;;;;;;3.20;2.75;;;;;;;;;;4998991;28;20445;-82
2023/01/21 03:52:33;;;;;;;4.28;2.97;;;;;;;;;;4997805;28;20121;-80
2023/01/21 03:54:58;;;;;;;3.15;2.85;;;;;;;;;;5014841;28;20112;-82
2023/01/21 03:57:23;;;;;;;3.70;2.75;;;;;;;;;;4997705;28;20389;-82
2023/01/21 03:59:49;;;;;;;3.28;2.97;;;;;;;;;;5013963;28;20477;-82
2023/01/21 04:02:19;;;;;;;3.53;2.90;;;;;;;;;;5014212;28;20081;-82
2023/01/21 04:04:45;;;;;;;5.60;3.08;;;;;;;;;;4998284;28;20061;-82
2023/01/21 04:07:11;;;;;;;4.32;2.95;;;;;;;;;;5015525;28;20477;-82
2023/01/21 04:09:37;;;;;;;3.88;3.17;;;;;;;;;;4997924;28;20092;-82
2023/01/21 04:12:02;;;;;;;5.50;3.15;;;;;;;;;;4981483;28;20459;-82
2023/01/21 04:14:28;;;;;;;4.55;3.03;;;;;;;;;;4981230;28;20050;-82
2023/01/21 04:16:53;;;;;;;3.28;2.90;;;;;;;;;;5014994;28;20041;-83
2023/01/21 04:19:18;;;;;;;4.35;2.97;;;;;;;;;;4997420;28;20125;-82
2023/01/21 04:21:44;;;;;;;4.00;2.85;;;;;;;;;;5014395;28;20477;-82
2023/01/21 04:24:09;;;;;;;4.13;3.00;;;;;;;;;;5013366;28;20084;-82
2023/01/21 04:26:34;;;;;;;3.47;2.92;;;;;;;;;;5013799;28;20030;-81
2023/01/21 04:29:00;;;;;;;4.97;2.95;;;;;;;;;;5014933;28;20030;-82
2023/01/21 04:31:25;;;;;;;3.70;2.70;;;;;;;;;;5015203;28;20030;-82
2023/01/21 04:33:51;;;;;;;4.43;3.15;;;;;;;;;;5013359;28;20481;-82
2023/01/21 04:36:16;;;;;;;6.20;3.05;;;;;;;;;;5013420;28;20030;-82
2023/01/21 04:38:41;;;;;;;3.28;2.90;;;;;;;;;;5013618;28;20129;-83
2023/01/21 04:41:07;;;;;;;3.83;2.95;;;;;;;;;;5015055;28;20037;-82
2023/01/21 04:43:32;;;;;;;4.53;3.35;;;;;;;;;;5014704;28;20084;-82
2023/01/21 04:45:57;;;;;;;4.72;3.10;;;;;;;;;;5014782;28;20025;-82
2023/01/21 04:48:23;;;;;;;3.13;2.83;;;;;;;;;;5014676;28;20480;-81
2023/01/21 04:50:48;;;;;;;4.78;3.42;;;;;;;;;;5013252;28;20038;-82
2023/01/21 04:53:13;;;;;;;3.92;2.90;;;;;;;;;;5014299;28;20076;-82
2023/01/21 04:55:39;;;;;;;4.78;3.28;;;;;;;;;;5014649;28;20381;-81
2023/01/21 04:58:04;;;;;;;4.78;3.15;;;;;;;;;;5014331;28;20029;-82
2023/01/21 05:00:30;;;;;;;3.63;3.05;;;;;;;;;;5012869;28;20053;-81
2023/01/21 05:02:55;;;;;;;4.57;3.20;;;;;;;;;;4996920;28;20029;-82
2023/01/21 05:05:20;;;;;;;4.63;3.20;;;;;;;;;;4996916;28;20112;-82
2023/01/21 05:07:46;;;;;;;3.08;2.75;;;;;;;;;;5014460;28;20057;-82
2023/01/21 05:10:16;;;;;;;3.15;2.83;;;;;;;;;;4997364;28;20040;-82
2023/01/21 05:12:41;;;;;;;3.33;3.03;;;;;;;;;;5013430;28;20113;-82
2023/01/21 05:15:07;;;;;;;3.97;3.38;;;;;;;;;;5012970;28;20480;-81
2023/01/21 05:17:32;;;;;;;3.17;2.80;;;;;;;;;;5013282;28;20481;-80
2023/01/21 05:19:58;;;;;;;4.45;3.10;;;;;;;;;;4996863;28;20112;-80
2023/01/21 05:22:23;;;;;;;4.40;3.25;;;;;;;;;;5014094;28;20030;-81
2023/01/21 05:24:48;;;;;;;3.97;3.10;;;;;;;;;;5012924;28;20042;-80
2023/01/21 05:27:14;;;;;;;4.30;3.03;;;;;;;;;;5014447;28;20029;-80
2023/01/21 05:29:40;;;;;;;4.38;3.42;;;;;;;;;;5014135;28;20026;-80
2023/01/21 05:32:05;;;;;;;4.57;3.00;;;;;;;;;;4996508;28;20124;-81
2023/01/21 05:34:31;;;;;;;4.25;3.13;;;;;;;;;;5012663;28;20038;-82
2023/01/21 05:36:56;;;;;;;4.32;3.08;;;;;;;;;;5013916;28;20041;-81
2023/01/21 05:39:21;;;;;;;3.55;3.00;;;;;;;;;;5014101;28;20493;-82
2023/01/21 05:41:47;;;;;;;5.30;3.25;;;;;;;;;;5012750;28;20025;-83
2023/01/21 05:44:12;;;;;;;3.70;2.92;;;;;;;;;;5014257;28;20129;-81
2023/01/21 05:46:37;;;;;;;3.65;2.80;;;;;;;;;;4996248;28;20033;-81
2023/01/21 05:49:03;;;;;;;3.83;2.97;;;;;;;;;;5014069;28;20028;-82
2023/01/21 05:51:28;;;;;;;3.95;2.90;;;;;;;;;;4996229;28;20539;-81
2023/01/21 05:53:54;;;;;;;4.07;3.20;;;;;;;;;;5012487;28;20037;-81
2023/01/21 05:56:19;;;;;;;4.03;2.97;;;;;;;;;;4996114;28;20026;-81
2023/01/21 05:58:45;;;;;;;3.58;2.95;;;;;;;;;;4995963;28;20030;-81
2023/01/21 06:01:10;;;;;;;5.32;3.10;;;;;;;;;;4996065;28;20037;-81
2023/01/21 06:03:36;;;;;;;3.72;2.75;;;;;;;;;;4995927;28;20045;-82
2023/01/21 06:06:02;;;;;;;3.97;3.03;;;;;;;;;;4996153;28;20176;-82
2023/01/21 06:08:27;;;;;;;4.00;3.00;;;;;;;;;;5012224;28;20087;-82
2023/01/21 06:10:56;;;;;;;3.85;2.90;;;;;;;;;;5012425;28;20037;-82
2023/01/21 06:13:22;;;;;;;4.20;3.20;;;;;;;;;;5016063;28;20120;-82
2023/01/21 06:15:47;;;;;;;3.42;2.75;;;;;;;;;;5015612;28;20447;-82
2023/01/21 06:18:12;;;;;;;4.95;3.38;;;;;;;;;;5015544;28;20021;-82
2023/01/21 06:20:38;;;;;;;4.25;3.17;;;;;;;;;;5015477;28;20396;-82
2023/01/21 06:23:04;;;;;;;5.32;3.10;;;;;;;;;;5033071;28;20029;-82
2023/01/21 06:25:30;;;;;;;4.45;3.10;;;;;;;;;;5015437;28;20449;-80
2023/01/21 06:27:56;;;;;;;3.72;2.83;;;;;;;;;;5015709;28;20372;-81
2023/01/21 06:30:23;;;;;;;4.55;3.42;;;;;;;;;;4999305;28;20052;-81
2023/01/21 06:32:48;;;;;;;5.05;3.42;;;;;;;;;;5016011;28;20025;-80
2023/01/21 06:35:14;;;;;;;4.43;3.22;;;;;;;;;;5015369;28;20028;-80
2023/01/21 06:37:40;;;;;;;4.75;3.25;;;;;;;;;;5033086;28;20472;-81
2023/01/21 06:40:07;;;;;;;4.15;3.15;;;;;;;;;;5016126;28;20042;-82
2023/01/21 06:42:32;;;;;;;6.25;3.60;;;;;;;;;;5015850;28;20031;-81
2023/01/21 06:44:58;;;;;;;4.30;3.38;;;;;;;;;;5015362;28;20112;-81
2023/01/21 06:47:23;;;;;;;4.57;3.40;;;;;;;;;;5018983;28;20117;-81
2023/01/21 06:49:48;;;;;;;5.05;3.75;;;;;;;;;;5019697;28;20030;-81
2023/01/21 06:52:14;;;;;;;4.05;3.42;;;;;;;;;;5002635;28;20048;-81
2023/01/21 06:54:39;;;;;;;4.45;3.58;;;;;;;;;;5019207;28;20041;-81
2023/01/21 06:57:04;;;;;;;5.88;3.70;;;;;;;;;;5036944;28;20492;-81
2023/01/21 06:59:30;;;;;;;4.32;3.55;;;;;;;;;;5036485;28;20037;-82
2023/01/21 07:01:57;;;;;;;5.30;3.72;;;;;;;;;;5036860;28;20108;-81
2023/01/21 07:04:24;;;;;;;4.90;3.55;;;;;;;;;;5036802;28;20057;-82
2023/01/21 07:06:49;;;;;;;5.45;4.00;;;;;;;;;;5018730;28;20091;-81
2023/01/21 07:09:15;;;;;;;5.68;4.05;;;;;;;;;;5003163;28;20064;-82
2023/01/21 07:11:40;;;;;;;4.72;3.83;;;;;;;;;;5001851;28;20171;-82
2023/01/21 07:14:05;;;;;;;4.75;3.75;;;;;;;;;;5035485;28;20057;-82
2023/01/21 07:16:31;;;;;;;4.95;3.47;;;;;;;;;;5017958;28;20045;-82
2023/01/21 07:18:56;;;;;;;10.18;3.97;;;;;;;;;;5035423;28;20035;-82
2023/01/21 07:21:24;;;;;;;7.13;3.97;;;;;;;;;;5035260;28;20396;-82
2023/01/21 07:23:51;;;;;;;5.40;4.15;;;;;;;;;;5001015;28;20033;-81
2023/01/21 07:26:17;;;;;;;5.28;3.63;;;;;;;;;;5017806;28;20025;-81
2023/01/21 07:28:42;;;;;;;5.68;3.78;;;;;;;;;;5017619;28;20392;-80
2023/01/21 07:31:08;;;;;;;5.30;3.88;;;;;;;;;;5035419;28;20029;-85
2023/01/21 07:33:33;;;;;;;6.32;3.78;;;;;;;;;;5017709;28;20452;-81
2023/01/21 07:35:59;;;;;;;6.10;3.38;;;;;;;;;;5017812;28;20480;-81
2023/01/21 07:38:24;;;;;;;6.47;4.60;;;;;;;;;;5035108;28;20121;-79
2023/01/21 07:40:49;;;;;;;5.60;3.58;;;;;;;;;;5017462;28;20033;-81
2023/01/21 07:43:15;;;;;;;6.22;4.00;;;;;;;;;;5017423;28;20065;-79
2023/01/21 07:45:41;;;;;;;5.65;3.83;;;;;;;;;;5039700;28;20035;-80
2023/01/21 07:48:06;;;;;;;10.70;4.80;;;;;;;;;;5028867;28;20029;-79
2023/01/21 07:50:33;;;;;;;4.90;3.97;;;;;;;;;;5051164;28;20467;-80
2023/01/21 07:52:58;;;;;;;6.53;4.05;;;;;;;;;;5037120;28;20108;-79
2023/01/21 07:55:24;;;;;;;5.40;4.03;;;;;;;;;;5054775;28;20183;-80
2023/01/21 07:57:50;;;;;;;5.45;3.90;;;;;;;;;;5049140;28;20053;-79
2023/01/21 08:00:16;;;;;;;10.20;4.00;;;;;;;;;;5026461;28;20025;-82
2023/01/21 08:02:41;;;;;;;6.75;3.83;;;;;;;;;;5028258;28;20116;-82
2023/01/21 08:05:07;;;;;;;6.03;3.83;;;;;;;;;;5025016;28;20107;-80
2023/01/21 08:07:32;;;;;;;8.32;4.35;;;;;;;;;;5022185;28;20053;-82
2023/01/21 08:09:58;;;;;;;13.45;5.35;;;;;;;;;;5017097;28;20036;-80
2023/01/21 08:12:23;;;;;;;16.30;5.78;;;;;;;;;;5044922;28;20116;-80
2023/01/21 08:14:49;;;;;;;20.98;6.25;;;;;;;;;;5006329;28;20570;-80
2023/01/21 08:17:14;;;;;;;12.73;5.50;;;;;;;;;;5013811;28;20033;-80
2023/01/21 08:19:39;;;;;;;15.82;5.80;;;;;;;;;;5035071;28;20032;-78
2023/01/21 08:22:05;;;;;;;9.48;5.15;;;;;;;;;;5035135;28;20041;-78
2023/01/21 08:24:30;;;;;;;13.52;5.55;;;;;;;;;;4984841;28;20033;-79
2023/01/21 08:26:57;;;;;;;11.38;5.72;;;;;;;;;;5036041;28;20105;-80
2023/01/21 08:29:23;;;;;;;12.45;5.63;;;;;;;;;;5017734;28;20030;-79
2023/01/21 08:31:49;;;;;;;19.80;5.40;;;;;;;;;;5000936;28;20044;-79
2023/01/21 08:34:15;;;;;;;15.65;6.55;;;;;;;;;;5017173;28;20563;-79
2023/01/21 08:36:40;;;;;;;11.40;6.35;;;;;;;;;;5017277;28;20116;-79
2023/01/21 08:39:06;;;;;;;13.43;5.80;;;;;;;;;;5000833;28;20473;-79
2023/01/21 08:41:32;;;;;;;9.80;5.50;;;;;;;;;;5000724;28;20439;-81
2023/01/21 08:43:57;;;;;;;12.98;6.47;;;;;;;;;;5017104;28;20032;-79
2023/01/21 08:46:23;;;;;;;11.02;6.10;;;;;;;;;;5016789;28;20037;-79
2023/01/21 08:48:49;;;;;;;13.15;5.82;;;;;;;;;;5017626;28;20079;-79
2023/01/21 08:51:15;;;;;;;9.77;5.55;;;;;;;;;;5017258;28;20033;-80
2023/01/21 08:53:40;;;;;;;17.73;6.15;;;;;;;;;;5017101;28;20083;-80
2023/01/21 08:56:06;;;;;;;8.10;5.40;;;;;;;;;;5034376;28;20080;-80
2023/01/21 08:58:32;;;;;;;10.70;5.13;;;;;;;;;;5000175;28;20421;-80
2023/01/21 09:00:57;;;;;;;10.30;5.88;;;;;;;;;;5016698;28;20439;-80
2023/01/21 09:03:23;;;;;;;10.63;5.30;;;;;;;;;;5000514;28;20038;-79
2023/01/21 09:05:53;;;;;;;9.02;5.50;;;;;;;;;;5016602;28;20104;-79
2023/01/21 09:08:18;;;;;;;9.20;5.45;;;;;;;;;;5016691;28;20029;-80
2023/01/21 09:11:02;;;;;;;9.13;5.30;;;;;;;;;;5016496;28;20423;-80
2023/01/21 09:13:37;;;;;;;10.30;6.18;;;;;;;;;;5020798;28;20081;-79
2023/01/21 09:16:14;;;;;;;8.35;5.35;;;;;;;;;;5034295;28;20029;-79
2023/01/21 09:18:39;;;;;;;11.27;5.50;;;;;;;;;;5032917;28;20468;-79
2023/01/21 09:21:05;;;;;;;9.30;5.63;;;;;;;;;;5033819;28;20087;-79
2023/01/21 09:23:33;;;;;;;11.18;5.70;;;;;;;;;;5032752;28;20547;-80
2023/01/21 09:26:05;;;;;;;10.75;5.40;;;;;;;;;;5016418;28;20028;-79
2023/01/21 09:28:32;;;;;;;8.52;5.70;;;;;;;;;;5016101;28;20079;-80
2023/01/21 09:30:59;;;;;;;11.40;5.88;;;;;;;;;;5032957;28;20531;-80
2023/01/21 09:33:26;;;;;;;9.25;5.63;;;;;;;;;;5033621;28;20075;-79
2023/01/21 09:35:53;;;;;;;7.65;5.25;;;;;;;;;;5032505;28;20029;-82
2023/01/21 09:38:18;;;;;;;9.25;5.03;;;;;;;;;;5032313;28;20112;-81
2023/01/21 09:40:44;;;;;;;8.93;5.38;;;;;;;;;;5032423;28;20108;-81
2023/01/21 09:43:14;;;;;;;10.65;5.40;;;;;;;;;;5034196;28;20032;-82
2023/01/21 09:45:40;;;;;;;7.72;5.10;;;;;;;;;;5015871;28;20563;-80
2023/01/21 09:48:06;;;;;;;7.50;5.32;;;;;;;;;;5032277;28;20033;-80
2023/01/21 09:50:37;;;;;;;8.18;5.20;;;;;;;;;;5033823;28;20028;-80
2023/01/21 09:53:18;;;;;;;8.70;5.68;;;;;;;;;;5015873;28;20036;-80
2023/01/21 09:55:46;;;;;;;9.45;4.97;;;;;;;;;;5032658;28;20021;-77
2023/01/21 09:58:49;;;;;;;10.23;5.53;;;;;;;;;;5033264;28;20040;-79
2023/01/21 10:01:27;;;;;;;9.18;5.43;;;;;;;;;;5012198;28;20031;-79
2023/01/21 10:04:21;;;;;;;9.98;5.60;;;;;;;;;;5011742;28;20034;-80
2023/01/21 10:06:48;;;;;;;9.90;5.40;;;;;;;;;;5011562;28;20623;-80
2023/01/21 10:09:37;;;;;;;10.15;5.30;;;;;;;;;;5011689;28;20045;-80
2023/01/21 10:12:27;;;;;;;9.32;5.10;;;;;;;;;;4995123;28;20608;-80
2023/01/21 10:15:14;;;;;;;8.45;5.57;;;;;;;;;;4994191;28;20505;-80
2023/01/21 10:17:58;;;;;;;8.15;5.18;;;;;;;;;;4991840;28;20042;-80
2023/01/21 10:20:27;;;;;;;10.82;5.10;;;;;;;;;;4992445;28;20401;-81
2023/01/21 10:22:59;;;;;;;8.55;4.95;;;;;;;;;;4979643;28;20069;-80
2023/01/21 10:25:34;;;;;;;8.88;5.22;;;;;;;;;;4979907;28;20030;-80
2023/01/21 10:28:23;;;;;;;8.68;5.15;;;;;;;;;;4979448;28;20038;-80
2023/01/21 10:31:12;;;;;;;10.50;5.07;;;;;;;;;;4979560;28;20064;-81
2023/01/21 10:33:38;;;;;;;8.00;4.57;;;;;;;;;;4985427;28;20559;-81
2023/01/21 10:36:40;;;;;;;8.27;4.85;;;;;;;;;;5031387;28;20045;-81
2023/01/21 10:39:21;;;;;;;8.18;4.80;;;;;;;;;;5037108;28;20041;-81
2023/01/21 10:42:04;;;;;;;6.85;4.78;;;;;;;;;;5037215;28;20101;-81
2023/01/21 10:44:52;;;;;;;11.15;5.13;;;;;;;;;;5037103;28;20112;-82
2023/01/21 10:47:42;;;;;;;10.85;5.10;;;;;;;;;;5019014;28;20494;-81
2023/01/21 10:50:30;;;;;;;6.88;4.75;;;;;;;;;;5036740;28;20029;-80
2023/01/21 10:53:04;;;;;;;7.60;4.75;;;;;;;;;;5019066;28;20029;-80
2023/01/21 10:55:45;;;;;;;6.72;4.70;;;;;;;;;;5019126;28;20025;-81
2023/01/21 10:58:39;;;;;;;7.95;4.88;;;;;;;;;;5036826;28;20021;-81
2023/01/21 11:01:06;;;;;;;;;;;;;;;;;;5033992;28;20038;-81
2023/01/21 11:03:34;;;;;;;7.20;4.60;;;;;;;;;;5020401;28;19909;-81
2023/01/21 11:06:03;;;;;;;7.40;4.60;;;;;;;;;;5037544;28;20048;-80
2023/01/21 11:08:29;;;;;;;7.00;4.75;;;;;;;;;;5019253;28;20029;-81
2023/01/21 11:10:54;;;;;;;7.25;4.70;;;;;;;;;;5018848;28;20034;-81
2023/01/21 11:13:21;;;;;;;8.35;4.80;;;;;;;;;;5023080;28;20124;-82
2023/01/21 11:15:52;;;;;;;5.75;4.30;;;;;;;;;;5056393;28;20495;-81
2023/01/21 11:18:26;;;;;;;7.78;5.15;;;;;;;;;;5022063;28;20028;-81
2023/01/21 11:21:20;;;;;;;8.75;4.97;;;;;;;;;;5038372;28;20480;-80
2023/01/21 11:23:56;;;;;;;;;;;;;;;;;;5053846;28;20087;-82
2023/01/21 11:26:24;;;;;;;7.10;5.15;;;;;;;;;;5056629;28;19915;-82
2023/01/21 11:29:08;;;;;;;8.63;5.15;;;;;;;;;;5038766;28;20025;-81
2023/01/21 11:31:34;;;;;;;;;;;;;;;;;;5038984;28;20021;-82
2023/01/21 11:34:11;;;;;;;6.47;4.90;;;;;;;;;;5056683;28;19927;-81
2023/01/21 11:36:37;;;;;;;9.70;5.53;;;;;;;;;;5038837;28;20025;-80
2023/01/21 11:39:04;;;;;;;7.85;5.45;;;;;;;;;;5037146;28;20036;-81
2023/01/21 11:41:30;;;;;;;8.13;5.47;;;;;;;;;;5037755;28;20032;-80
2023/01/21 11:44:18;;;;;;;9.70;5.45;;;;;;;;;;5055690;28;20029;-79
2023/01/21 11:46:44;;;;;;;7.53;5.15;;;;;;;;;;5037659;28;20017;-80
2023/01/21 11:49:09;;;;;;;8.98;5.43;;;;;;;;;;5038059;28;20464;-80
2023/01/21 11:51:36;;;;;;;7.15;5.18;;;;;;;;;;5055495;28;20036;-79
2023/01/21 11:54:19;;;;;;;9.70;5.50;;;;;;;;;;5037737;28;20368;-80
2023/01/21 11:57:24;;;;;;;10.23;5.97;;;;;;;;;;5022166;28;20081;-80
2023/01/21 11:59:52;;;;;;;8.45;5.03;;;;;;;;;;5037767;28;20483;-80
2023/01/21 12:02:29;;;;;;;8.07;5.22;;;;;;;;;;5021902;28;20467;-80
2023/01/21 12:05:08;;;;;;;7.20;5.45;;;;;;;;;;5037554;28;20021;-80
2023/01/21 12:07:35;;;;;;;7.25;4.85;;;;;;;;;;5037956;28;20028;-80
2023/01/21 12:10:25;;;;;;;10.38;5.65;;;;;;;;;;5021674;28;20460;-80
2023/01/21 12:13:01;;;;;;;7.65;4.97;;;;;;;;;;5036726;28;20028;-78
2023/01/21 12:15:27;;;;;;;10.35;6.03;;;;;;;;;;5017542;28;20071;-79
2023/01/21 12:18:00;;;;;;;8.73;5.50;;;;;;;;;;5035708;28;20068;-78
2023/01/21 12:20:48;;;;;;;7.57;5.43;;;;;;;;;;5017503;28;20026;-80
2023/01/21 12:23:41;;;;;;;8.98;5.70;;;;;;;;;;5035109;28;20538;-79
2023/01/21 12:26:33;;;;;;;8.82;5.68;;;;;;;;;;5035572;28;20044;-80
2023/01/21 12:29:05;;;;;;;9.07;5.65;;;;;;;;;;5017484;28;20361;-84
2023/01/21 12:31:34;;;;;;;10.18;5.72;;;;;;;;;;5017272;28;20032;-81
2023/01/21 12:34:28;;;;;;;11.52;6.20;;;;;;;;;;5017282;28;20017;-81
2023/01/21 12:37:09;;;;;;;8.43;5.85;;;;;;;;;;5034971;28;20109;-80
2023/01/21 12:39:39;;;;;;;8.63;6.18;;;;;;;;;;5034889;28;20037;-80
2023/01/21 12:42:07;;;;;;;8.32;5.97;;;;;;;;;;5017273;28;20032;-81
2023/01/21 12:44:37;;;;;;;9.23;5.93;;;;;;;;;;5034056;28;20036;-82
2023/01/21 12:47:09;;;;;;;13.02;6.85;;;;;;;;;;5016958;28;20057;-83
2023/01/21 12:49:49;;;;;;;8.65;6.25;;;;;;;;;;5001396;28;20428;-82
2023/01/21 12:52:54;;;;;;;8.55;5.75;;;;;;;;;;5034536;28;20053;-82
2023/01/21 12:55:38;;;;;;;8.40;5.45;;;;;;;;;;5001903;28;20045;-81
2023/01/21 12:58:09;;;;;;;9.55;6.10;;;;;;;;;;5034550;28;20032;-82
2023/01/21 13:00:37;;;;;;;10.05;6.43;;;;;;;;;;5000197;28;20064;-82
2023/01/21 13:03:26;;;;;;;12.98;6.30;;;;;;;;;;5000194;28;20476;-82
2023/01/21 13:06:00;;;;;;;8.50;5.88;;;;;;;;;;5016314;28;20444;-83
2023/01/21 13:08:40;;;;;;;8.90;6.40;;;;;;;;;;5016907;28;20029;-82
2023/01/21 13:11:19;;;;;;;11.00;6.22;;;;;;;;;;5034071;28;20033;-82
2023/01/21 13:14:06;;;;;;;8.48;5.95;;;;;;;;;;5024228;28;20045;-82
2023/01/21 13:16:33;;;;;;;8.52;6.03;;;;;;;;;;5053860;28;20115;-80
2023/01/21 13:18:59;;;;;;;9.68;6.57;;;;;;;;;;5036089;28;20082;-82
2023/01/21 13:21:27;;;;;;;8.57;5.95;;;;;;;;;;5053636;28;20044;-82
2023/01/21 13:24:10;;;;;;;10.27;6.80;;;;;;;;;;5036020;28;20028;-82
2023/01/21 13:26:53;;;;;;;9.30;6.63;;;;;;;;;;5036031;28;20036;-81
2023/01/21 13:29:41;;;;;;;9.35;6.65;;;;;;;;;;5053703;28;20052;-82
2023/01/21 13:32:24;;;;;;;10.57;6.35;;;;;;;;;;5053255;28;20043;-82
2023/01/21 13:34:51;;;;;;;10.50;6.70;;;;;;;;;;5019307;28;20033;-81
2023/01/21 13:37:36;;;;;;;10.70;6.80;;;;;;;;;;5035837;28;20510;-83
2023/01/21 13:40:23;;;;;;;10.10;6.47;;;;;;;;;;5035830;28;20029;-82
2023/01/21 13:43:18;;;;;;;11.48;6.13;;;;;;;;;;5052346;28;20033;-83
2023/01/21 13:45:54;;;;;;;9.75;6.03;;;;;;;;;;5034642;28;20387;-83
2023/01/21 13:49:07;;;;;;;10.90;6.07;;;;;;;;;;5035194;28;20021;-83
2023/01/21 13:52:00;;;;;;;7.22;5.80;;;;;;;;;;4991644;28;20541;-82
2023/01/21 13:54:33;;;;;;;9.23;6.68;;;;;;;;;;4991381;28;20524;-84
2023/01/21 13:57:20;;;;;;;8.32;6.15;;;;;;;;;;4959530;28;20030;-82
2023/01/21 14:00:03;;;;;;;8.07;6.25;;;;;;;;;;4976073;28;20397;-81
2023/01/21 14:02:55;;;;;;;9.70;6.40;;;;;;;;;;4975805;28;20106;-81
2023/01/21 14:05:23;;;;;;;11.27;6.50;;;;;;;;;;4991914;28;20073;-81
2023/01/21 14:08:00;;;;;;;7.70;5.65;;;;;;;;;;4991702;28;20036;-80
2023/01/21 14:10:49;;;;;;;9.52;6.28;;;;;;;;;;4958890;28;20039;-82
2023/01/21 14:13:33;;;;;;;8.90;6.07;;;;;;;;;;4990678;28;20034;-81
2023/01/21 14:16:26;;;;;;;9.13;5.95;;;;;;;;;;4975097;28;20030;-82
2023/01/21 14:19:10;;;;;;;8.43;5.43;;;;;;;;;;4991218;28;20141;-81
2023/01/21 14:21:54;;;;;;;8.27;5.50;;;;;;;;;;4991259;28;20145;-81
2023/01/21 14:24:36;;;;;;;8.23;5.47;;;;;;;;;;4974998;28;20161;-83
2023/01/21 14:27:45;;;;;;;7.05;5.10;;;;;;;;;;5052559;28;20036;-80
2023/01/21 14:30:10;;;;;;;7.15;4.90;;;;;;;;;;5034853;28;20494;-78
2023/01/21 14:32:53;;;;;;;6.60;5.03;;;;;;;;;;5052402;28;20108;-80
2023/01/21 14:35:47;;;;;;;6.63;5.10;;;;;;;;;;5034650;28;20029;-80
2023/01/21 14:38:32;;;;;;;;;;;;;;;;;;5014714;28;20591;-77
2023/01/21 14:41:06;;;;;;;7.53;5.35;;;;;;;;;;5034448;28;19917;-80
2023/01/21 14:43:31;;;;;;;7.28;4.60;;;;;;;;;;5052391;28;20025;-80
2023/01/21 14:45:58;;;;;;;6.90;4.70;;;;;;;;;;5052271;28;20079;-81
2023/01/21 14:48:41;;;;;;;7.55;5.10;;;;;;;;;;5034641;28;20483;-81
2023/01/21 14:51:06;;;;;;;7.88;4.70;;;;;;;;;;5034744;28;20475;-80
2023/01/21 14:53:45;;;;;;;7.65;4.80;;;;;;;;;;5052348;28;20071;-81
2023/01/21 14:56:22;;;;;;;7.88;5.10;;;;;;;;;;5052284;28;20067;-80
2023/01/21 14:58:56;;;;;;;5.93;4.38;;;;;;;;;;5034191;28;20066;-80
2023/01/21 15:01:28;;;;;;;6.30;4.60;;;;;;;;;;5018001;28;20029;-81
2023/01/21 15:03:55;;;;;;;6.20;4.30;;;;;;;;;;5017966;28;20028;-81
2023/01/21 15:06:21;;;;;;;7.07;4.53;;;;;;;;;;5034935;28;20417;-81
2023/01/21 15:08:50;;;;;;;5.28;4.18;;;;;;;;;;5036172;28;20025;-81
2023/01/21 15:11:19;;;;;;;6.28;4.38;;;;;;;;;;5038177;28;20455;-80